WetterOnline ( https://www.wetteronline.de )

Wetter aktuell Spatzenhausen

Aktuelles Wetter: Hohenpeißenberg (986m)

6-stündlich | Neueste Meldungen
Ortszeit Temperatur Wetter
Fr, 30.10. 19:00 8.7° C bewölkt
Fr, 30.10. 13:00 10.7° C wolkig
Fr, 30.10. 7:00 8.0° C bewölkt
Fr, 30.10. 1:00 6.5° C leichter Regen
Do, 29.10. 19:00 6.4° C leichter Regen
Do, 29.10. 13:00 6.3° C leichter Regen
Do, 29.10. 7:00 6.5° C leichter Regen
Do, 29.10. 1:00 6.2° C leichter Regen
Ortszeit Temperatur Wetter
Fr, 30.10. 21:00 7.7° C wolkenlos
Fr, 30.10. 20:50 7.7° C wolkenlos
Fr, 30.10. 20:40 7.9° C wolkenlos
Fr, 30.10. 20:30 8.3° C wolkenlos
Fr, 30.10. 20:20 8.3° C wolkenlos
Fr, 30.10. 20:10 8.3° C wolkenlos
Fr, 30.10. 20:00 8.3° C leicht bewölkt
Fr, 30.10. 19:30 8.3° C bewölkt
Fr, 30.10. 19:00 8.7° C bewölkt
Fr, 30.10. 18:30 8.9° C bedeckt
Fr, 30.10. 18:00 8.9° C bedeckt
Fr, 30.10. 17:30 8.9° C bedeckt
Ortszeit Relative Feuchte Sichtweite
Fr, 30.10. 19:00 89% 60 km
Fr, 30.10. 13:00 78% 60 km
Fr, 30.10. 7:00 89% >70 km
Fr, 30.10. 1:00 100% 0.2 km
Do, 29.10. 19:00 99% 7 km
Do, 29.10. 13:00 99% 0.3 km
Do, 29.10. 7:00 97% 16 km
Do, 29.10. 1:00 97% 55 km
Ortszeit Relative Feuchte Sichtweite
Fr, 30.10. 21:00 93% 35 km
Fr, 30.10. 20:50 93% -
Fr, 30.10. 20:40 92% -
Fr, 30.10. 20:30 90% 45 km
Fr, 30.10. 20:20 90% -
Fr, 30.10. 20:10 90% -
Fr, 30.10. 20:00 90% 40 km
Fr, 30.10. 19:30 91% 45 km
Fr, 30.10. 19:00 89% 60 km
Fr, 30.10. 18:30 88% 50 km
Fr, 30.10. 18:00 87% 55 km
Fr, 30.10. 17:30 87% 45 km
Ortszeit Niederschlagsmenge Niederschlagsart
Fr, 30.10. 19:00 0.0 l/m2 in 12 Std. -
Fr, 30.10. 13:00 0.0 l/m2 in 6 Std. -
Fr, 30.10. 7:00 5 l/m2 in 12 Std. Regen
Fr, 30.10. 1:00 4 l/m2 in 6 Std. Regen
Do, 29.10. 19:00 12 l/m2 in 12 Std. Regen
Do, 29.10. 13:00 7 l/m2 in 6 Std. Regen
Do, 29.10. 7:00 3 l/m2 in 12 Std. Regen
Do, 29.10. 1:00 1 l/m2 in 6 Std. Regen
Ortszeit Niederschlagsmenge Niederschlagsart
Fr, 30.10. 21:00 0.0 l/m2 in 1 Std. -
Fr, 30.10. 20:50 keine Meldung -
Fr, 30.10. 20:40 keine Meldung -
Fr, 30.10. 20:30 0.0 l/m2 in 1 Std. -
Fr, 30.10. 20:20 keine Meldung -
Fr, 30.10. 20:10 keine Meldung -
Fr, 30.10. 20:00 0.0 l/m2 in 1 Std. -
Fr, 30.10. 19:30 0.0 l/m2 in 1 Std. -
Fr, 30.10. 19:00 0.0 l/m2 in 1 Std. -
Fr, 30.10. 18:30 0.0 l/m2 in 1 Std. -
Fr, 30.10. 18:00 0.0 l/m2 in 1 Std. -
Fr, 30.10. 17:30 0.0 l/m2 in 1 Std. -
Ortszeit Stärke Spitze Richtung
km/h Bft. km/h Grad Sektor
Fr, 30.10. 19:00 14 3 43 270° W
Fr, 30.10. 13:00 18 3 54 260° W
Fr, 30.10. 7:00 31 5 63 250° W
Fr, 30.10. 1:00 28 4 48 230° SW
Do, 29.10. 19:00 24 4 57 250° W
Do, 29.10. 13:00 28 4 61 240° SW
Do, 29.10. 7:00 31 5 57 240° SW
Do, 29.10. 1:00 33 5 65 230° SW
Ortszeit Stärke Spitze Richtung
km/h Bft. km/h Grad Sektor
Fr, 30.10. 21:00 13 3 28 260° W
Fr, 30.10. 20:50 13 3 - 260° W
Fr, 30.10. 20:40 11 2 - 270° W
Fr, 30.10. 20:30 14 3 29 280° W
Fr, 30.10. 20:20 14 3 - 280° W
Fr, 30.10. 20:10 18 3 - 280° W
Fr, 30.10. 20:00 14 3 32 280° W
Fr, 30.10. 19:30 17 3 31 260° W
Fr, 30.10. 19:00 14 3 32 270° W
Fr, 30.10. 18:30 17 3 31 260° W
Fr, 30.10. 18:00 18 3 29 270° W
Fr, 30.10. 17:30 17 3 30 260° W
Ortszeit Untergrenze Bedeckung Gattung
total tief tief mittel hoch
Fr, 30.10. 19:00 3600 m 7/8 7/8 - - -
Fr, 30.10. 13:00 450 m 8/8 2/8 - - -
Fr, 30.10. 7:00 600 m 8/8 5/8 - - -
Fr, 30.10. 1:00 <30 m 7/8 0/8 - - -
Do, 29.10. 19:00 30 m 8/8 8/8 - - -
Do, 29.10. 13:00 30 m 7/8 7/8 - - -
Do, 29.10. 7:00 600 m 8/8 8/8 - - -
Do, 29.10. 1:00 1050 m 8/8 8/8 - - -
Ortszeit Bedeckungsgrad in Achtel und Wolkenuntergrenze
Fr, 30.10. 21:00 keine Wolken
Fr, 30.10. 20:50 keine Wolken
Fr, 30.10. 20:40 keine Wolken
Fr, 30.10. 20:30 keine Wolken
Fr, 30.10. 20:20 keine Wolken
Fr, 30.10. 20:10 keine Wolken
Fr, 30.10. 20:00 2(3300m)
Fr, 30.10. 19:30 5(3300m) 7(3900m)
Fr, 30.10. 19:00 7(3600m) 7(5100m)
Fr, 30.10. 18:30 8(3900m) 8(4500m) 8(5100m)
Fr, 30.10. 18:00 5(3900m) 8(5100m)
Fr, 30.10. 17:30 8(3900m) 8(5100m)
Ortszeit Stationsdruck (hPa) Tendenz (hPa in 3 Std.)
Fr, 30.10. 19:00 912 + 0,7
Fr, 30.10. 13:00 911 - 0,5
Fr, 30.10. 7:00 910 + 0,6
Fr, 30.10. 1:00 910 - 0,3
Do, 29.10. 19:00 909 + 1,5
Do, 29.10. 13:00 908 + 1,3
Do, 29.10. 7:00 905 + 1,0
Do, 29.10. 1:00 905 + 0,4
Ortszeit Stationsdruck (hPa) Tendenz (hPa in 3 Std.)
Fr, 30.10. 21:00 913 + 1,2
Fr, 30.10. 20:50 913 keine Meldung
Fr, 30.10. 20:40 913 keine Meldung
Fr, 30.10. 20:30 913 + 1,2
Fr, 30.10. 20:20 913 keine Meldung
Fr, 30.10. 20:10 913 keine Meldung
Fr, 30.10. 20:00 913 + 1,1
Fr, 30.10. 19:30 913 + 0,9
Fr, 30.10. 19:00 912 + 0,7
Fr, 30.10. 18:30 912 + 0,5
Fr, 30.10. 18:00 912 + 0,6
Fr, 30.10. 17:30 912 + 0,5
Ortszeit Schneehöhe (cm)
Fr, 30.10. 19:00 0
Fr, 30.10. 13:00 0
Fr, 30.10. 7:00 0
Fr, 30.10. 1:00 0
Do, 29.10. 19:00 0
Do, 29.10. 13:00 0
Do, 29.10. 7:00 0
Do, 29.10. 1:00 0
Ortszeit Schneehöhe (cm)
Fr, 30.10. 21:00 0
Fr, 30.10. 20:50 0
Fr, 30.10. 20:40 0
Fr, 30.10. 20:30 0
Fr, 30.10. 20:20 0
Fr, 30.10. 20:10 0
Fr, 30.10. 20:00 0
Fr, 30.10. 19:30 0
Fr, 30.10. 19:00 0
Fr, 30.10. 18:30 0
Fr, 30.10. 18:00 0
Fr, 30.10. 17:30 0
Link zu dieser Seite / Seite empfehlen

Das Wetter in ...